PWSweather.com
Personal Weather Stations
Station Observations
PWSLORIS
The Farm At Fox Bay, Loris, SC 29569

The Farm At Fox BayLoris, SC 29569

Lat: 34.067097, Lon: -78.86907

Elevation: 108

Station Type: Davis Vantage Pro2 with 24 hr. FARS and solar

http://www.lorisweather.com

High Low Average
Temperature 90.1°F32.3°F 67.9°F19.9°F 76.5°F24.7°F
Dew Point 77.3°F25.2°F 66.4°F19.1°F 71.6°F22.0°F
Winds 4.6 mph NNW7.4 mph NNW Calm Calm 0.7 mph 1.1 mph
Wind Gusts 9.2 mph14.8 mph -- 1.3 mph2.1 mph
Humidity 99% 56% 86%
Pressure 30.03 in1016.90 in 29.95 in1014.20 in -
Precipitation 0.02 in0.50 in - -
Hour Temp Dew Point Humidity Winds Wind Gusts Pressure Precip Precip Rate Daily Precip Total
12:00 AM 73.5°F23.1°C 72.3°F22.4°C 96% Calm Calm -- 30.00 in1015.9 mb - 0.00 in0.0 mm 0.00 in0.0 mm
12:15 AM 73.2°F22.9°C 72.0°F22.2°C 96% Calm Calm -- 30.00 in1015.9 mb - 0.00 in0.0 mm 0.00 in0.0 mm
12:30 AM 73.0°F22.8°C 72.1°F22.3°C 97% Calm Calm -- 30.00 in1015.9 mb - 0.00 in0.0 mm 0.00 in0.0 mm
12:45 AM 72.7°F22.6°C 71.8°F22.1°C 97% Calm Calm -- 30.00 in1015.9 mb - 0.00 in0.0 mm 0.00 in0.0 mm
01:00 AM 72.5°F22.5°C 71.6°F22.0°C 97% Calm Calm -- 30.00 in1015.9 mb - 0.00 in0.0 mm 0.00 in0.0 mm
01:15 AM 72.6°F22.6°C 71.7°F22.1°C 97% Calm Calm -- 30.00 in1015.9 mb - 0.00 in0.0 mm 0.00 in0.0 mm
01:30 AM 72.8°F22.7°C 71.9°F22.2°C 97% Calm Calm 4.6 mph7.4 kmh 30.00 in1015.9 mb - 0.00 in0.0 mm 0.00 in0.0 mm
01:45 AM 72.7°F22.6°C 71.8°F22.1°C 97% Calm Calm -- 30.00 in1015.9 mb - 0.00 in0.0 mm 0.00 in0.0 mm
02:00 AM 72.5°F22.5°C 71.6°F22.0°C 97% Calm Calm -- 29.99 in1015.6 mb - 0.00 in0.0 mm 0.00 in0.0 mm
02:15 AM 72.4°F22.4°C 71.5°F21.9°C 97% Calm Calm -- 29.99 in1015.6 mb - 0.00 in0.0 mm 0.00 in0.0 mm
02:30 AM 72.3°F22.4°C 71.4°F21.9°C 97% Calm Calm -- 29.98 in1015.2 mb - 0.00 in0.0 mm 0.00 in0.0 mm
02:45 AM 72.1°F22.3°C 71.2°F21.8°C 97% Calm Calm -- 29.98 in1015.2 mb - 0.00 in0.0 mm 0.00 in0.0 mm
03:00 AM 71.9°F22.2°C 71.3°F21.8°C 98% Calm Calm -- 29.98 in1015.2 mb - 0.00 in0.0 mm 0.00 in0.0 mm
03:15 AM 71.6°F22.0°C 70.7°F21.5°C 97% Calm Calm -- 29.98 in1015.2 mb - 0.00 in0.0 mm 0.00 in0.0 mm
03:30 AM 71.3°F21.8°C 70.7°F21.5°C 98% Calm Calm -- 29.98 in1015.2 mb - 0.00 in0.0 mm 0.00 in0.0 mm
03:45 AM 71.2°F21.8°C 70.6°F21.4°C 98% Calm Calm -- 29.97 in1014.9 mb - 0.00 in0.0 mm 0.00 in0.0 mm
04:00 AM 71.0°F21.7°C 70.4°F21.3°C 98% Calm Calm -- 29.97 in1014.9 mb - 0.00 in0.0 mm 0.00 in0.0 mm
04:15 AM 70.6°F21.4°C 70.0°F21.1°C 98% Calm Calm -- 29.97 in1014.9 mb - 0.00 in0.0 mm 0.00 in0.0 mm
04:30 AM 70.3°F21.3°C 69.7°F20.9°C 98% Calm Calm -- 29.97 in1014.9 mb - 0.00 in0.0 mm 0.00 in0.0 mm
04:45 AM 70.2°F21.2°C 69.6°F20.9°C 98% Calm Calm -- 29.97 in1014.9 mb - 0.00 in0.0 mm 0.00 in0.0 mm
05:00 AM 70.0°F21.1°C 69.4°F20.8°C 98% Calm Calm -- 29.97 in1014.9 mb - 0.00 in0.0 mm 0.00 in0.0 mm
05:15 AM 69.7°F20.9°C 69.1°F20.6°C 98% Calm Calm -- 29.98 in1015.2 mb - 0.00 in0.0 mm 0.00 in0.0 mm
05:30 AM 69.6°F20.9°C 69.0°F20.6°C 98% Calm Calm -- 29.98 in1015.2 mb - 0.00 in0.0 mm 0.00 in0.0 mm
05:45 AM 69.6°F20.9°C 69.0°F20.6°C 98% Calm Calm -- 29.99 in1015.6 mb - 0.00 in0.0 mm 0.00 in0.0 mm
06:00 AM 69.9°F21.1°C 69.3°F20.7°C 98% Calm Calm -- 29.99 in1015.6 mb - 0.00 in0.0 mm 0.00 in0.0 mm
06:15 AM 70.3°F21.3°C 69.7°F20.9°C 98% Calm Calm -- 30.00 in1015.9 mb - 0.00 in0.0 mm 0.00 in0.0 mm
06:30 AM 70.5°F21.4°C 69.9°F21.1°C 98% Calm Calm -- 30.00 in1015.9 mb - 0.00 in0.0 mm 0.00 in0.0 mm
06:45 AM 70.4°F21.3°C 69.8°F21.0°C 98% Calm Calm -- 30.00 in1015.9 mb - 0.00 in0.0 mm 0.00 in0.0 mm
07:00 AM 70.2°F21.2°C 69.6°F20.9°C 98% Calm Calm -- 30.01 in1016.3 mb - 0.00 in0.0 mm 0.00 in0.0 mm
07:15 AM 70.1°F21.2°C 69.5°F20.8°C 98% Calm Calm -- 30.01 in1016.3 mb - 0.00 in0.0 mm 0.00 in0.0 mm
07:30 AM 70.6°F21.4°C 70.0°F21.1°C 98% Calm Calm -- 30.01 in1016.3 mb - 0.00 in0.0 mm 0.00 in0.0 mm
07:45 AM 71.2°F21.8°C 70.6°F21.4°C 98% Calm Calm -- 30.02 in1016.6 mb - 0.00 in0.0 mm 0.00 in0.0 mm
08:00 AM 72.1°F22.3°C 71.8°F22.1°C 99% Calm Calm -- 30.02 in1016.6 mb - 0.00 in0.0 mm 0.00 in0.0 mm
08:15 AM 72.8°F22.7°C 72.2°F22.3°C 98% Calm Calm -- 30.02 in1016.6 mb - 0.00 in0.0 mm 0.00 in0.0 mm
08:30 AM 73.4°F23.0°C 72.8°F22.7°C 98% Calm Calm -- 30.03 in1016.9 mb - 0.00 in0.0 mm 0.00 in0.0 mm
08:45 AM 74.6°F23.7°C 74.0°F23.3°C 98% 1.2 mph NNW1.9 kmh NNW 2.3 mph3.7 kmh 30.03 in1016.9 mb - 0.00 in0.0 mm 0.00 in0.0 mm
09:00 AM 75.7°F24.3°C 74.5°F23.6°C 96% 1.2 mph NW1.9 kmh NW 4.6 mph7.4 kmh 30.03 in1016.9 mb - 0.00 in0.0 mm 0.00 in0.0 mm
09:15 AM 76.9°F24.9°C 74.4°F23.6°C 92% 2.3 mph NW3.7 kmh NW 3.5 mph5.6 kmh 30.03 in1016.9 mb - 0.00 in0.0 mm 0.00 in0.0 mm
09:30 AM 78.1°F25.6°C 74.6°F23.7°C 89% 2.3 mph NW3.7 kmh NW 2.3 mph3.7 kmh 30.03 in1016.9 mb - 0.00 in0.0 mm 0.00 in0.0 mm
09:45 AM 79.4°F26.3°C 75.6°F24.2°C 88% Calm Calm 3.5 mph5.6 kmh 30.03 in1016.9 mb - 0.00 in0.0 mm 0.00 in0.0 mm
10:00 AM 80.6°F27.0°C 75.3°F24.1°C 84% Calm Calm 2.3 mph3.7 kmh 30.03 in1016.9 mb - 0.00 in0.0 mm 0.00 in0.0 mm
10:15 AM 81.5°F27.5°C 75.5°F24.2°C 82% Calm Calm 1.2 mph1.9 kmh 30.03 in1016.9 mb - 0.00 in0.0 mm 0.00 in0.0 mm
10:30 AM 82.7°F28.2°C 76.2°F24.6°C 81% Calm Calm 1.2 mph1.9 kmh 30.03 in1016.9 mb - 0.00 in0.0 mm 0.00 in0.0 mm
10:45 AM 83.6°F28.7°C 76.4°F24.7°C 79% 1.2 mph N1.9 kmh N 2.3 mph3.7 kmh 30.03 in1016.9 mb - 0.00 in0.0 mm 0.00 in0.0 mm
11:00 AM 84.3°F29.1°C 76.3°F24.6°C 77% 2.3 mph NE3.7 kmh NE 3.5 mph5.6 kmh 30.02 in1016.6 mb - 0.00 in0.0 mm 0.00 in0.0 mm
11:15 AM 85.2°F29.6°C 75.6°F24.2°C 73% 4.6 mph NNW7.4 kmh NNW 4.6 mph7.4 kmh 30.02 in1016.6 mb - 0.00 in0.0 mm 0.00 in0.0 mm
11:30 AM 85.5°F29.7°C 76.3°F24.6°C 74% 3.5 mph NW5.6 kmh NW 4.6 mph7.4 kmh 30.02 in1016.6 mb - 0.00 in0.0 mm 0.00 in0.0 mm
11:45 AM 86.6°F30.3°C 76.5°F24.7°C 72% 1.2 mph N1.9 kmh N 2.3 mph3.7 kmh 30.02 in1016.6 mb - 0.00 in0.0 mm 0.00 in0.0 mm
12:00 PM 86.9°F30.5°C 75.5°F24.2°C 69% 1.2 mph N1.9 kmh N 3.5 mph5.6 kmh 30.02 in1016.6 mb - 0.00 in0.0 mm 0.00 in0.0 mm
12:15 PM 87.6°F30.9°C 76.6°F24.8°C 70% 2.3 mph NNW3.7 kmh NNW 4.6 mph7.4 kmh 30.02 in1016.6 mb - 0.00 in0.0 mm 0.00 in0.0 mm
12:30 PM 87.9°F31.1°C 77.3°F25.2°C 71% 1.2 mph NNE1.9 kmh NNE 3.5 mph5.6 kmh 30.02 in1016.6 mb - 0.00 in0.0 mm 0.00 in0.0 mm
12:45 PM 87.1°F30.6°C 75.7°F24.3°C 69% 1.2 mph NNE1.9 kmh NNE 1.2 mph1.9 kmh 30.01 in1016.3 mb - 0.00 in0.0 mm 0.00 in0.0 mm
01:00 PM 88.9°F31.6°C 75.6°F24.2°C 65% 3.5 mph NNW5.6 kmh NNW 5.8 mph9.3 kmh 30.00 in1015.9 mb - 0.00 in0.0 mm 0.00 in0.0 mm
01:15 PM 88.7°F31.5°C 75.0°F23.9°C 64% 2.3 mph ENE3.7 kmh ENE 3.5 mph5.6 kmh 30.00 in1015.9 mb - 0.00 in0.0 mm 0.00 in0.0 mm
01:30 PM 88.7°F31.5°C 75.4°F24.1°C 65% 2.3 mph ENE3.7 kmh ENE 3.5 mph5.6 kmh 29.99 in1015.6 mb - 0.00 in0.0 mm 0.00 in0.0 mm
01:45 PM 89.0°F31.7°C 75.2°F24.0°C 64% Calm Calm -- 29.99 in1015.6 mb - 0.00 in0.0 mm 0.00 in0.0 mm
02:00 PM 88.1°F31.2°C 73.5°F23.1°C 62% 2.3 mph NE3.7 kmh NE 3.5 mph5.6 kmh 29.98 in1015.2 mb - 0.00 in0.0 mm 0.00 in0.0 mm
02:15 PM 89.8°F32.1°C 74.1°F23.4°C 60% Calm Calm 1.2 mph1.9 kmh 29.98 in1015.2 mb - 0.00 in0.0 mm 0.00 in0.0 mm
02:30 PM 90.1°F32.3°C 73.3°F22.9°C 58% 2.3 mph NE3.7 kmh NE 3.5 mph5.6 kmh 29.97 in1014.9 mb - 0.00 in0.0 mm 0.00 in0.0 mm
02:45 PM 87.4°F30.8°C 73.3°F22.9°C 63% 2.3 mph ENE3.7 kmh ENE 3.5 mph5.6 kmh 29.97 in1014.9 mb - 0.00 in0.0 mm 0.00 in0.0 mm
03:00 PM 87.5°F30.8°C 73.3°F22.9°C 63% Calm Calm -- 29.96 in1014.6 mb - 0.00 in0.0 mm 0.00 in0.0 mm
03:15 PM 86.2°F30.1°C 72.6°F22.6°C 64% 1.2 mph NW1.9 kmh NW 2.3 mph3.7 kmh 29.95 in1014.2 mb - 0.00 in0.0 mm 0.00 in0.0 mm
03:30 PM 83.4°F28.6°C 73.8°F23.2°C 73% Calm Calm -- 29.96 in1014.6 mb - 0.00 in0.0 mm 0.00 in0.0 mm
03:45 PM 89.0°F31.7°C 74.3°F23.5°C 62% 1.2 mph NE1.9 kmh NE 3.5 mph5.6 kmh 29.95 in1014.2 mb - 0.00 in0.0 mm 0.00 in0.0 mm
04:00 PM 90.1°F32.3°C 72.3°F22.4°C 56% 2.3 mph NW3.7 kmh NW 3.5 mph5.6 kmh 29.95 in1014.2 mb - 0.00 in0.0 mm 0.00 in0.0 mm
04:15 PM 89.6°F32.0°C 72.3°F22.4°C 57% 1.2 mph NE1.9 kmh NE 2.3 mph3.7 kmh 29.95 in1014.2 mb - 0.00 in0.0 mm 0.00 in0.0 mm
04:30 PM 85.0°F29.4°C 75.0°F23.9°C 72% 4.6 mph S7.4 kmh S 4.6 mph7.4 kmh 29.95 in1014.2 mb - 0.00 in0.0 mm 0.00 in0.0 mm
04:45 PM 82.0°F27.8°C 72.9°F22.7°C 74% 1.2 mph S1.9 kmh S 2.3 mph3.7 kmh 29.96 in1014.6 mb - 0.00 in0.0 mm 0.00 in0.0 mm
05:00 PM 78.2°F25.7°C 72.3°F22.4°C 82% Calm Calm -- 29.96 in1014.6 mb - 0.01 in0.3 mm 0.01 in0.3 mm
05:15 PM 75.6°F24.2°C 72.8°F22.7°C 91% Calm Calm -- 29.96 in1014.6 mb - 0.01 in0.3 mm 0.02 in0.5 mm
05:30 PM 75.9°F24.4°C 72.4°F22.4°C 89% 1.2 mph S1.9 kmh S 2.3 mph3.7 kmh 29.97 in1014.9 mb - 0.00 in0.0 mm 0.02 in0.5 mm
05:45 PM 76.2°F24.6°C 73.1°F22.8°C 90% Calm Calm -- 29.97 in1014.9 mb - 0.00 in0.0 mm 0.02 in0.5 mm
06:00 PM 76.3°F24.6°C 72.1°F22.3°C 87% 1.2 mph S1.9 kmh S 3.5 mph5.6 kmh 29.96 in1014.6 mb - 0.00 in0.0 mm 0.02 in0.5 mm
06:15 PM 76.7°F24.8°C 71.8°F22.1°C 85% 1.2 mph S1.9 kmh S 3.5 mph5.6 kmh 29.96 in1014.6 mb - 0.00 in0.0 mm 0.02 in0.5 mm
06:30 PM 75.2°F24.0°C 71.4°F21.9°C 88% Calm Calm -- 29.98 in1015.2 mb - 0.00 in0.0 mm 0.02 in0.5 mm
06:45 PM 75.6°F24.2°C 71.1°F21.7°C 86% Calm Calm 2.3 mph3.7 kmh 29.99 in1015.6 mb - 0.00 in0.0 mm 0.02 in0.5 mm
07:00 PM 76.2°F24.6°C 69.2°F20.7°C 79% 2.3 mph E3.7 kmh E 4.6 mph7.4 kmh 29.98 in1015.2 mb - 0.00 in0.0 mm 0.02 in0.5 mm
07:15 PM 75.4°F24.1°C 67.6°F19.8°C 77% 3.5 mph E5.6 kmh E 9.2 mph14.8 kmh 30.00 in1015.9 mb - 0.00 in0.0 mm 0.02 in0.5 mm
07:30 PM 74.0°F23.3°C 67.1°F19.5°C 79% 3.5 mph ENE5.6 kmh ENE 3.5 mph5.6 kmh 30.01 in1016.3 mb - 0.00 in0.0 mm 0.02 in0.5 mm
07:45 PM 73.1°F22.8°C 67.6°F19.8°C 83% Calm Calm -- 30.01 in1016.3 mb - 0.00 in0.0 mm 0.02 in0.5 mm
08:00 PM 72.5°F22.5°C 67.7°F19.8°C 85% Calm Calm -- 30.01 in1016.3 mb - 0.00 in0.0 mm 0.02 in0.5 mm
08:15 PM 72.2°F22.3°C 67.8°F19.9°C 86% Calm Calm -- 30.02 in1016.6 mb - 0.00 in0.0 mm 0.02 in0.5 mm
08:30 PM 72.1°F22.3°C 68.0°F20.0°C 87% Calm Calm -- 30.02 in1016.6 mb - 0.00 in0.0 mm 0.02 in0.5 mm
08:45 PM 71.5°F21.9°C 68.1°F20.1°C 89% Calm Calm -- 30.01 in1016.3 mb - 0.00 in0.0 mm 0.02 in0.5 mm
09:00 PM 71.2°F21.8°C 67.8°F19.9°C 89% Calm Calm -- 30.01 in1016.3 mb - 0.00 in0.0 mm 0.02 in0.5 mm
09:15 PM 71.0°F21.7°C 67.9°F19.9°C 90% Calm Calm -- 30.00 in1015.9 mb - 0.00 in0.0 mm 0.02 in0.5 mm
09:30 PM 70.8°F21.6°C 67.7°F19.8°C 90% Calm Calm -- 30.02 in1016.6 mb - 0.00 in0.0 mm 0.02 in0.5 mm
09:45 PM 70.4°F21.3°C 67.6°F19.8°C 91% Calm Calm -- 30.02 in1016.6 mb - 0.00 in0.0 mm 0.02 in0.5 mm
10:00 PM 70.2°F21.2°C 67.8°F19.9°C 92% Calm Calm -- 30.02 in1016.6 mb - 0.00 in0.0 mm 0.02 in0.5 mm
10:15 PM 70.3°F21.3°C 68.2°F20.1°C 93% Calm Calm -- 30.02 in1016.6 mb - 0.00 in0.0 mm 0.02 in0.5 mm
10:30 PM 70.2°F21.2°C 67.8°F19.9°C 92% Calm Calm -- 30.03 in1016.9 mb - 0.00 in0.0 mm 0.02 in0.5 mm
10:45 PM 69.5°F20.8°C 67.4°F19.7°C 93% Calm Calm -- 30.03 in1016.9 mb - 0.00 in0.0 mm 0.02 in0.5 mm
11:00 PM 68.9°F20.5°C 67.1°F19.5°C 94% Calm Calm -- 30.02 in1016.6 mb - 0.00 in0.0 mm 0.02 in0.5 mm
11:15 PM 68.7°F20.4°C 66.9°F19.4°C 94% Calm Calm -- 30.02 in1016.6 mb - 0.00 in0.0 mm 0.02 in0.5 mm
11:30 PM 68.2°F20.1°C 66.8°F19.3°C 95% Calm Calm -- 30.02 in1016.6 mb - 0.00 in0.0 mm 0.02 in0.5 mm
11:45 PM 67.9°F19.9°C 66.4°F19.1°C 95% Calm Calm -- 30.02 in1016.6 mb - 0.00 in0.0 mm 0.02 in0.5 mm